Decoded Metar for KMTH (MARATHON in FL, USA) (IATA:MTH) | Meteo·Mobile Aviation Weather
aviador You're here:

KMTH Decoded Metar

MARATHON in FL, USA
Report Time2020-02-22 21:53:00
UTC Time2020-02-22 22:39:47
Flight Rules vfr VFR
Wind050° at 16 Gusting to 24 kt
W.Decomp.*RWY 07: 15.4 kt HW 4.4 kt LCW
Visibility9999 m
Phenomena:N/A
Clouds:N/A
Expected CloudBase > 4,000 ft AGL from Temp-Dew spread
CeilingNone
Temp24°C (ISA +9)
Dew Point14°C (54% RH)
AAT19.5°C
QNH1020 hPa
Density Alt1,033 ft
Elevation7 ft
Report Wrong Elevation
Raw Report
METAR KMTH 222153Z AUTO 05016G24KT 10SM CLR 24/14 A3011 RMK AO2 PK
WND 05026/2108 SLP195 T02390144=

Extra information for KMTH:More info

Metar Taf Metar & Taf Last 4 Metars F.Rules Stats Wind Profile Meteogram Temp Stats Airport Information Weather charts Add Link Nearby VenuesMetar ALERT Operation Metar Decoded Social comments

AIRNAV info for KMTH